createdAt,value
2024-01-08T00:02:13.867Z,81.10
2024-01-08T00:04:41.104Z,81.23
2024-01-08T00:07:08.275Z,81.27
2024-01-08T00:09:35.404Z,81.29
2024-01-08T00:12:02.505Z,81.07
2024-01-08T00:14:29.882Z,81.20
2024-01-08T00:16:57.225Z,80.88
2024-01-08T00:19:24.666Z,80.98
2024-01-08T00:21:51.823Z,80.96
2024-01-08T00:24:18.992Z,80.91
2024-01-08T00:26:46.132Z,80.71
2024-01-08T00:29:13.321Z,80.80
2024-01-08T00:31:40.575Z,80.80
2024-01-08T00:34:07.826Z,80.90
2024-01-08T00:36:36.310Z,80.78
2024-01-08T00:39:03.675Z,80.77
2024-01-08T00:41:30.932Z,80.89
2024-01-08T00:43:58.125Z,80.83
2024-01-08T00:46:25.698Z,80.45
2024-01-08T00:48:54.183Z,80.62
2024-01-08T00:51:21.412Z,80.80
2024-01-08T00:53:48.687Z,80.66
2024-01-08T00:56:16.988Z,80.87
2024-01-08T00:58:45.632Z,80.77
2024-01-08T01:01:13.860Z,80.70
2024-01-08T01:03:41.132Z,80.75
2024-01-08T01:06:08.868Z,80.73
2024-01-08T01:08:36.413Z,80.79
2024-01-08T01:11:04.282Z,80.61
2024-01-08T01:13:31.451Z,80.63
2024-01-08T01:15:58.746Z,80.43
2024-01-08T01:18:26.046Z,80.37
2024-01-08T01:20:53.897Z,80.38
2024-01-08T01:23:21.072Z,80.69
2024-01-08T01:25:48.268Z,80.66
2024-01-08T01:28:15.729Z,80.44
2024-01-08T01:30:43.072Z,80.42
2024-01-08T01:33:10.381Z,80.54
2024-01-08T01:35:37.591Z,80.74
2024-01-08T01:38:04.900Z,80.52
2024-01-08T01:40:32.050Z,80.53
2024-01-08T01:42:59.207Z,80.42
2024-01-08T01:45:26.740Z,80.72
2024-01-08T01:47:57.355Z,80.55
2024-01-08T01:50:25.677Z,80.50
2024-01-08T01:52:53.072Z,80.61
2024-01-08T01:55:20.335Z,80.79
2024-01-08T01:57:48.208Z,80.73
2024-01-08T02:00:16.026Z,80.91
2024-01-08T02:02:44.868Z,80.81
2024-01-08T02:05:13.442Z,80.74
2024-01-08T02:07:41.804Z,80.71
2024-01-08T02:10:09.295Z,80.95
2024-01-08T02:12:37.428Z,80.85
2024-01-08T02:15:05.918Z,80.78
2024-01-08T02:17:33.492Z,80.65
2024-01-08T02:20:00.899Z,80.59
2024-01-08T02:22:28.236Z,80.80
2024-01-08T02:24:56.294Z,80.95
2024-01-08T02:27:23.418Z,80.85
2024-01-08T02:29:50.538Z,81.13
2024-01-08T02:32:18.161Z,80.95
2024-01-08T02:34:45.632Z,80.95
2024-01-08T02:37:13.816Z,81.06
2024-01-08T02:39:41.109Z,80.86
2024-01-08T02:42:08.306Z,81.03
2024-01-08T02:44:35.580Z,81.22
2024-01-08T02:47:03.353Z,81.06
2024-01-08T02:49:30.546Z,81.30
2024-01-08T02:51:57.976Z,81.19
2024-01-08T02:54:25.138Z,81.13
2024-01-08T02:56:52.832Z,81.23
2024-01-08T02:59:20.021Z,81.35
2024-01-08T03:01:47.281Z,81.30
2024-01-08T03:04:14.861Z,81.28
2024-01-08T03:06:42.181Z,81.39
2024-01-08T03:09:09.397Z,81.30
2024-01-08T03:11:36.686Z,81.46
2024-01-08T03:14:03.980Z,81.34
2024-01-08T03:16:31.133Z,81.50
2024-01-08T03:18:58.344Z,81.72
2024-01-08T03:21:25.478Z,81.41
2024-01-08T03:23:52.665Z,81.46
2024-01-08T03:26:19.970Z,81.75
2024-01-08T03:28:47.124Z,81.63
2024-01-08T03:31:14.271Z,81.71
2024-01-08T03:33:41.513Z,81.69
2024-01-08T03:36:12.256Z,81.74
2024-01-08T03:38:39.461Z,81.68
2024-01-08T03:41:06.721Z,81.89
2024-01-08T03:43:33.897Z,81.85
2024-01-08T03:46:01.365Z,81.75
2024-01-08T03:48:28.631Z,81.93
2024-01-08T03:50:55.941Z,82.15
2024-01-08T03:53:23.283Z,81.89
2024-01-08T03:55:50.577Z,82.03
2024-01-08T03:58:17.859Z,82.11
2024-01-08T04:00:45.016Z,82.15
2024-01-08T04:03:12.533Z,82.10
2024-01-08T04:05:40.063Z,82.03
2024-01-08T04:08:07.556Z,82.29
2024-01-08T04:10:34.718Z,82.09
2024-01-08T04:13:01.943Z,82.19
2024-01-08T04:15:29.105Z,82.36
2024-01-08T04:17:56.735Z,82.12
2024-01-08T04:20:24.469Z,82.41
2024-01-08T04:22:52.181Z,82.42
2024-01-08T04:25:22.535Z,82.20
2024-01-08T04:27:52.585Z,82.28
2024-01-08T04:30:20.106Z,82.41
2024-01-08T04:32:47.421Z,82.48
2024-01-08T04:35:14.962Z,82.56
2024-01-08T04:37:42.434Z,82.55
2024-01-08T04:40:10.052Z,82.41
2024-01-08T04:42:37.237Z,82.73
2024-01-08T04:45:04.742Z,82.61
2024-01-08T04:47:31.980Z,82.80
2024-01-08T04:49:59.390Z,82.69
2024-01-08T04:52:26.637Z,82.68
2024-01-08T04:54:54.030Z,82.85
2024-01-08T04:57:21.340Z,83.07
2024-01-08T04:59:48.933Z,83.17
2024-01-08T05:02:16.210Z,83.13
2024-01-08T05:04:43.664Z,82.99
2024-01-08T05:07:13.512Z,82.94
2024-01-08T05:09:40.934Z,83.21
2024-01-08T05:12:08.727Z,83.34
2024-01-08T05:14:35.933Z,83.30
2024-01-08T05:17:03.168Z,83.21
2024-01-08T05:19:30.454Z,83.39
2024-01-08T05:21:57.676Z,83.42
2024-01-08T05:24:24.881Z,83.35
2024-01-08T05:26:52.186Z,83.29
2024-01-08T05:29:21.929Z,83.36
2024-01-08T05:31:49.642Z,83.67
2024-01-08T05:34:16.811Z,83.51
2024-01-08T05:36:44.138Z,83.48
2024-01-08T05:39:11.327Z,83.53
2024-01-08T05:41:42.404Z,83.70
2024-01-08T05:44:10.204Z,83.65
2024-01-08T05:46:43.301Z,83.51
2024-01-08T05:49:10.655Z,83.41
2024-01-08T05:51:37.894Z,83.62
2024-01-08T05:54:05.109Z,83.59
2024-01-08T05:56:32.994Z,83.52
2024-01-08T05:59:00.999Z,83.44
2024-01-08T06:01:28.201Z,83.45
2024-01-08T06:03:55.618Z,83.57
2024-01-08T06:06:22.851Z,83.48
2024-01-08T06:08:50.244Z,83.10
2024-01-08T06:11:17.490Z,83.39
2024-01-08T06:13:44.897Z,83.04
2024-01-08T06:16:17.003Z,83.19
2024-01-08T06:18:44.300Z,83.21
2024-01-08T06:21:11.482Z,82.85
2024-01-08T06:23:38.864Z,82.60
2024-01-08T06:26:06.213Z,83.04
2024-01-08T06:28:34.171Z,82.82
2024-01-08T06:31:04.580Z,82.90
2024-01-08T06:33:32.049Z,82.60
2024-01-08T06:35:59.532Z,82.65
2024-01-08T06:38:26.997Z,82.68
2024-01-08T06:40:54.364Z,82.65
2024-01-08T06:43:21.466Z,82.46
2024-01-08T06:45:50.805Z,82.39
2024-01-08T06:48:18.014Z,82.67
2024-01-08T06:50:45.171Z,82.51
2024-01-08T06:53:14.529Z,82.14
2024-01-08T06:55:42.655Z,82.11
2024-01-08T06:58:09.882Z,82.03
2024-01-08T07:00:37.094Z,82.17
2024-01-08T07:03:04.789Z,81.79
2024-01-08T07:05:32.011Z,81.58
2024-01-08T07:08:01.622Z,81.71
2024-01-08T07:10:30.207Z,81.60
2024-01-08T07:12:57.778Z,81.65
2024-01-08T07:15:44.992Z,81.55
2024-01-08T07:18:12.232Z,81.45
2024-01-08T07:20:39.990Z,81.51
2024-01-08T07:23:09.795Z,81.62
2024-01-08T07:25:39.986Z,81.72
2024-01-08T07:28:09.208Z,81.44
2024-01-08T07:30:37.212Z,81.40
2024-01-08T07:33:04.899Z,81.64
2024-01-08T07:35:32.233Z,81.75
2024-01-08T07:37:59.574Z,81.74
2024-01-08T07:40:27.223Z,81.51
2024-01-08T07:42:54.970Z,81.37
2024-01-08T07:45:27.751Z,81.55
2024-01-08T07:47:56.511Z,81.48
2024-01-08T07:50:23.936Z,81.69
2024-01-08T07:52:50.991Z,81.72
2024-01-08T07:55:18.378Z,81.83
2024-01-08T07:57:45.468Z,81.80
2024-01-08T08:00:13.464Z,81.67
2024-01-08T08:02:41.172Z,81.97
2024-01-08T08:05:08.684Z,81.81
2024-01-08T08:07:38.711Z,81.87
2024-01-08T08:10:06.362Z,81.90
2024-01-08T08:12:33.975Z,82.29
2024-01-08T08:15:01.116Z,82.12
2024-01-08T08:17:28.384Z,82.18
2024-01-08T08:19:55.689Z,82.16
2024-01-08T08:22:23.370Z,82.32
2024-01-08T08:24:51.036Z,82.36
2024-01-08T08:27:18.237Z,82.44
2024-01-08T08:29:49.679Z,82.46
2024-01-08T08:32:16.938Z,82.32
2024-01-08T08:34:44.165Z,82.42
2024-01-08T08:37:11.560Z,82.36
2024-01-08T08:39:39.085Z,82.67
2024-01-08T08:42:09.071Z,82.64
2024-01-08T08:44:36.435Z,82.53
2024-01-08T08:47:04.113Z,82.85
2024-01-08T08:49:31.645Z,82.66
2024-01-08T08:52:03.061Z,82.79
2024-01-08T08:54:30.152Z,82.59
2024-01-08T08:56:57.204Z,82.99
2024-01-08T08:59:24.343Z,82.53
2024-01-08T09:01:54.535Z,82.75
2024-01-08T09:04:24.428Z,82.75
2024-01-08T09:06:56.616Z,82.71
2024-01-08T09:09:25.294Z,82.81
2024-01-08T09:11:55.442Z,82.87
2024-01-08T09:14:22.575Z,82.73
2024-01-08T09:16:49.692Z,82.68
2024-01-08T09:19:16.842Z,82.95
2024-01-08T09:21:46.730Z,82.65
2024-01-08T09:24:13.799Z,82.66
2024-01-08T09:26:43.352Z,82.80
2024-01-08T09:29:10.636Z,82.54
2024-01-08T09:31:37.882Z,82.75
2024-01-08T09:34:06.052Z,82.64
2024-01-08T09:36:33.208Z,82.91
2024-01-08T09:39:01.038Z,82.64
2024-01-08T09:41:28.206Z,82.64
2024-01-08T09:43:55.360Z,82.57
2024-01-08T09:46:30.333Z,82.37
2024-01-08T09:48:57.695Z,82.33
2024-01-08T09:51:24.871Z,82.74
2024-01-08T09:53:52.050Z,82.68
2024-01-08T09:56:20.469Z,82.70
2024-01-08T09:58:48.291Z,82.74
2024-01-08T10:01:15.464Z,82.48
2024-01-08T10:03:42.738Z,82.43
2024-01-08T10:06:10.851Z,82.38
2024-01-08T10:08:38.175Z,82.18
2024-01-08T10:11:05.869Z,82.17
2024-01-08T10:13:33.031Z,82.13
2024-01-08T10:16:00.271Z,82.31
2024-01-08T10:18:27.742Z,82.42
2024-01-08T10:21:14.584Z,81.97
2024-01-08T10:23:42.636Z,82.25
2024-01-08T10:26:12.415Z,82.46
2024-01-08T10:28:40.185Z,81.93
2024-01-08T10:31:08.974Z,82.20
2024-01-08T10:33:36.450Z,82.10
2024-01-08T10:36:05.893Z,82.01
2024-01-08T10:38:37.617Z,82.13
2024-01-08T10:41:05.330Z,82.06
2024-01-08T10:43:32.534Z,82.06
2024-01-08T10:46:00.852Z,82.22
2024-01-08T10:48:54.448Z,82.13
2024-01-08T10:51:21.803Z,82.27
2024-01-08T10:53:51.372Z,82.15
2024-01-08T10:56:22.504Z,82.06
2024-01-08T10:59:07.101Z,81.95
2024-01-08T11:01:34.427Z,82.41
2024-01-08T11:04:01.999Z,82.11
2024-01-08T11:06:30.358Z,82.03
2024-01-08T11:08:58.653Z,82.14
2024-01-08T11:11:26.739Z,81.95
2024-01-08T11:13:53.981Z,81.74
2024-01-08T11:16:28.317Z,82.06
2024-01-08T11:19:20.294Z,81.78
2024-01-08T11:21:51.034Z,81.92
2024-01-08T11:24:19.169Z,81.92
2024-01-08T11:26:46.747Z,81.69
2024-01-08T11:29:13.976Z,81.61
2024-01-08T11:32:19.488Z,81.55
2024-01-08T11:35:02.392Z,81.36
2024-01-08T11:37:33.735Z,81.42
2024-01-08T11:40:09.678Z,81.36
2024-01-08T11:42:37.263Z,81.18
2024-01-08T11:45:04.784Z,80.90
2024-01-08T11:47:33.142Z,81.06
2024-01-08T11:50:00.719Z,81.21
2024-01-08T11:52:30.614Z,81.06
2024-01-08T11:54:57.863Z,81.02
2024-01-08T11:57:25.369Z,80.86
2024-01-08T11:59:53.678Z,80.77
2024-01-08T12:02:22.590Z,80.58
2024-01-08T12:04:54.829Z,80.53
2024-01-08T12:07:23.004Z,80.52
2024-01-08T12:09:50.646Z,80.32
2024-01-08T12:12:19.545Z,80.18
2024-01-08T12:14:47.907Z,80.20
2024-01-08T12:17:22.610Z,79.98
2024-01-08T12:19:51.718Z,79.79
2024-01-08T12:22:21.998Z,79.84
2024-01-08T12:24:53.554Z,79.79
2024-01-08T12:27:21.422Z,79.87
2024-01-08T12:29:52.201Z,79.76
2024-01-08T12:32:23.689Z,79.55
2024-01-08T12:34:51.328Z,79.33
2024-01-08T12:37:20.678Z,79.30
2024-01-08T12:39:50.207Z,79.08
2024-01-08T12:42:19.555Z,79.04
2024-01-08T12:44:49.553Z,78.95
2024-01-08T12:47:17.148Z,78.66
2024-01-08T12:49:44.579Z,78.84
2024-01-08T12:52:12.402Z,78.67
2024-01-08T12:54:41.338Z,78.31
2024-01-08T12:57:08.553Z,78.52
2024-01-08T12:59:36.689Z,78.20
2024-01-08T13:02:04.935Z,78.06
2024-01-08T13:04:32.159Z,77.80
2024-01-08T13:06:59.403Z,77.78
2024-01-08T13:09:28.006Z,77.61
2024-01-08T13:11:55.573Z,77.30
2024-01-08T13:14:22.714Z,77.10
2024-01-08T13:16:49.952Z,76.88
2024-01-08T13:19:17.804Z,76.61
2024-01-08T13:21:46.931Z,76.43
2024-01-08T13:24:16.938Z,76.16
2024-01-08T13:26:47.900Z,76.40
2024-01-08T13:29:15.158Z,75.94
2024-01-08T13:31:42.375Z,76.02
2024-01-08T13:34:09.720Z,75.83
2024-01-08T13:36:38.433Z,75.73
2024-01-08T13:39:06.042Z,75.57
2024-01-08T13:41:36.481Z,75.23
2024-01-08T13:44:03.980Z,75.00
2024-01-08T13:46:31.538Z,74.83
2024-01-08T13:48:58.871Z,74.79
2024-01-08T13:51:26.083Z,74.93
2024-01-08T13:53:55.032Z,74.86
2024-01-08T13:56:22.160Z,74.86
2024-01-08T13:58:52.040Z,74.64
2024-01-08T14:01:19.376Z,74.68
2024-01-08T14:03:46.696Z,74.60
2024-01-08T14:06:14.808Z,74.93
2024-01-08T14:08:42.386Z,74.85
2024-01-08T14:11:09.751Z,74.58
2024-01-08T14:13:37.011Z,74.54
2024-01-08T14:16:04.659Z,74.37
2024-01-08T14:18:32.168Z,74.31
2024-01-08T14:20:59.432Z,74.54
2024-01-08T14:23:26.806Z,74.38
2024-01-08T14:25:54.331Z,74.06
2024-01-08T14:28:21.499Z,74.14
2024-01-08T14:30:50.767Z,74.13
2024-01-08T14:33:18.560Z,74.13
2024-01-08T14:35:45.797Z,74.18
2024-01-08T14:40:43.520Z,73.92
2024-01-08T14:43:11.391Z,74.14
2024-01-08T14:45:38.639Z,74.15
2024-01-08T14:48:06.086Z,74.04
2024-01-08T14:50:34.120Z,73.97
2024-01-08T14:53:01.425Z,74.30
2024-01-08T14:55:28.546Z,74.14
2024-01-08T14:57:55.658Z,73.73
2024-01-08T15:00:25.182Z,73.91
2024-01-08T15:02:53.755Z,74.32
2024-01-08T15:05:24.767Z,74.27
2024-01-08T15:07:52.443Z,74.21
2024-01-08T15:10:22.360Z,74.13
2024-01-08T15:12:49.856Z,74.39
2024-01-08T15:15:18.708Z,74.46
2024-01-08T15:17:45.916Z,74.32
2024-01-08T15:20:16.763Z,74.63
2024-01-08T15:22:46.199Z,74.74
2024-01-08T15:25:13.710Z,74.68
2024-01-08T15:27:41.043Z,74.92
2024-01-08T15:30:13.846Z,74.86
2024-01-08T15:32:44.415Z,75.04
2024-01-08T15:35:13.059Z,75.57
2024-01-08T15:37:40.341Z,75.45
2024-01-08T15:40:08.810Z,75.34
2024-01-08T15:42:36.403Z,75.42
2024-01-08T15:45:04.363Z,75.44
2024-01-08T15:47:31.502Z,75.49
2024-01-08T15:49:58.729Z,75.54
2024-01-08T15:52:25.848Z,75.55
2024-01-08T15:54:52.942Z,75.77
2024-01-08T15:57:20.041Z,75.75
2024-01-08T15:59:47.364Z,76.04
2024-01-08T16:02:14.678Z,75.78
2024-01-08T16:04:42.011Z,75.68
2024-01-08T16:07:10.261Z,76.00
2024-01-08T16:09:37.430Z,76.02
2024-01-08T16:12:06.261Z,76.09
2024-01-08T16:14:34.892Z,76.24
2024-01-08T16:17:02.066Z,76.10
2024-01-08T16:19:29.294Z,76.23
2024-01-08T16:21:56.660Z,76.19
2024-01-08T16:24:23.937Z,76.15
2024-01-08T16:26:51.335Z,76.27
2024-01-08T16:29:18.959Z,76.05
2024-01-08T16:31:47.326Z,76.30
2024-01-08T16:34:14.852Z,76.21
2024-01-08T16:36:42.107Z,76.36
2024-01-08T16:39:09.505Z,76.13
2024-01-08T16:41:36.770Z,76.22
2024-01-08T16:44:04.504Z,76.45
2024-01-08T16:46:32.095Z,76.36
2024-01-08T16:48:59.543Z,76.25
2024-01-08T16:51:27.470Z,76.49
2024-01-08T16:53:54.716Z,76.40
2024-01-08T16:56:21.888Z,76.38
2024-01-08T16:58:53.551Z,76.45
2024-01-08T17:01:21.515Z,76.41
2024-01-08T17:03:49.344Z,76.48
2024-01-08T17:06:20.668Z,76.28
2024-01-08T17:08:48.127Z,76.32
2024-01-08T17:11:15.398Z,76.29
2024-01-08T17:13:42.544Z,76.30
2024-01-08T17:16:09.729Z,76.54
2024-01-08T17:18:36.893Z,76.39
2024-01-08T17:21:04.126Z,76.39
2024-01-08T17:23:31.275Z,76.38
2024-01-08T17:25:58.506Z,76.49
2024-01-08T17:28:25.549Z,76.40
2024-01-08T17:30:52.728Z,76.37
2024-01-08T17:33:21.178Z,76.47
2024-01-08T17:35:48.847Z,76.48
2024-01-08T17:38:19.534Z,76.25
2024-01-08T17:40:46.679Z,76.52
2024-01-08T17:43:13.713Z,76.67
2024-01-08T17:45:40.849Z,76.44
2024-01-08T17:48:08.673Z,76.67
2024-01-08T17:50:36.244Z,76.64
2024-01-08T17:53:03.929Z,76.56
2024-01-08T17:55:31.361Z,76.73
2024-01-08T17:57:58.560Z,76.80
2024-01-08T18:00:25.717Z,76.49
2024-01-08T18:02:53.114Z,76.75
2024-01-08T18:05:20.662Z,76.76
2024-01-08T18:07:48.111Z,76.85
2024-01-08T18:10:15.315Z,76.78
2024-01-08T18:12:43.911Z,76.89
2024-01-08T18:15:13.798Z,76.89
2024-01-08T18:17:46.819Z,76.84
2024-01-08T18:20:15.365Z,76.95
2024-01-08T18:22:42.555Z,77.01
2024-01-08T18:25:09.886Z,76.87
2024-01-08T18:27:37.058Z,76.79
2024-01-08T18:30:04.347Z,77.15
2024-01-08T18:32:31.761Z,77.26
2024-01-08T18:34:58.846Z,77.25
2024-01-08T18:37:25.968Z,77.22
2024-01-08T18:39:53.045Z,77.08
2024-01-08T18:42:21.469Z,77.18
2024-01-08T18:44:49.625Z,77.38
2024-01-08T18:47:18.037Z,77.33
2024-01-08T18:49:45.233Z,77.55
2024-01-08T18:52:12.420Z,77.39
2024-01-08T18:54:41.426Z,77.44
2024-01-08T18:57:08.573Z,77.56
2024-01-08T18:59:37.657Z,77.52
2024-01-08T19:02:06.736Z,77.34
2024-01-08T19:04:34.826Z,77.45
2024-01-08T19:07:02.195Z,77.71
2024-01-08T19:09:29.743Z,77.76
2024-01-08T19:11:57.195Z,77.74
2024-01-08T19:14:24.370Z,77.75
2024-01-08T19:16:51.635Z,77.83
2024-01-08T19:19:22.107Z,77.85
2024-01-08T19:21:49.988Z,77.61
2024-01-08T19:24:18.686Z,77.79
2024-01-08T19:26:46.140Z,77.81
2024-01-08T19:29:13.467Z,77.87
2024-01-08T19:31:48.552Z,77.96
2024-01-08T19:34:15.734Z,78.07
2024-01-08T19:36:42.817Z,78.04
2024-01-08T19:39:09.966Z,78.16
2024-01-08T19:41:37.150Z,78.15
2024-01-08T19:44:04.604Z,78.01
2024-01-08T19:46:31.911Z,78.35
2024-01-08T19:49:01.480Z,78.38
2024-01-08T19:51:29.839Z,78.41
2024-01-08T19:53:56.960Z,78.34
2024-01-08T19:56:24.233Z,78.58
2024-01-08T19:58:51.718Z,78.57
2024-01-08T20:01:19.604Z,78.42
2024-01-08T20:03:46.705Z,78.54
2024-01-08T20:06:13.955Z,78.50
2024-01-08T20:08:41.457Z,78.62
2024-01-08T20:11:09.868Z,78.55
2024-01-08T20:13:38.497Z,78.70
2024-01-08T20:16:11.175Z,78.66
2024-01-08T20:18:39.436Z,78.55
2024-01-08T20:21:08.006Z,78.54
2024-01-08T20:23:38.226Z,78.61
2024-01-08T20:26:15.097Z,78.72
2024-01-08T20:28:43.469Z,78.96
2024-01-08T20:31:10.670Z,78.76
2024-01-08T20:33:39.724Z,78.87
2024-01-08T20:36:07.210Z,78.85
2024-01-08T20:38:34.347Z,79.04
2024-01-08T20:41:01.525Z,78.80
2024-01-08T20:43:31.088Z,78.86
2024-01-08T20:45:58.193Z,79.05
2024-01-08T20:48:25.378Z,79.12
2024-01-08T20:50:52.965Z,78.84
2024-01-08T20:53:20.480Z,79.14
2024-01-08T20:55:48.034Z,78.90
2024-01-08T20:58:15.236Z,79.27
2024-01-08T21:00:42.367Z,79.14
2024-01-08T21:03:09.736Z,79.25
2024-01-08T21:05:37.131Z,79.18
2024-01-08T21:08:04.714Z,79.10
2024-01-08T21:10:31.802Z,79.30
2024-01-08T21:12:58.866Z,79.27
2024-01-08T21:15:25.978Z,79.22
2024-01-08T21:17:54.266Z,79.41
2024-01-08T21:20:21.559Z,79.30
2024-01-08T21:22:51.417Z,79.40
2024-01-08T21:25:21.277Z,79.42
2024-01-08T21:27:51.701Z,79.23
2024-01-08T21:30:19.784Z,79.43
2024-01-08T21:32:47.557Z,79.43
2024-01-08T21:35:14.931Z,79.59
2024-01-08T21:37:42.338Z,79.76
2024-01-08T21:40:11.792Z,79.70
2024-01-08T21:42:42.305Z,79.80
2024-01-08T21:45:10.143Z,79.64
2024-01-08T21:47:37.378Z,79.60
2024-01-08T21:50:05.848Z,79.75
2024-01-08T21:52:33.079Z,79.73
2024-01-08T21:55:01.517Z,79.55
2024-01-08T21:57:28.980Z,79.81
2024-01-08T21:59:56.115Z,79.70
2024-01-08T22:02:23.342Z,79.77
2024-01-08T22:04:50.461Z,79.81
2024-01-08T22:07:18.296Z,79.74
2024-01-08T22:09:45.693Z,79.91
2024-01-08T22:12:12.811Z,79.77
2024-01-08T22:14:40.347Z,79.79
2024-01-08T22:17:07.591Z,79.83
2024-01-08T22:19:34.686Z,80.00
2024-01-08T22:22:01.810Z,79.86
2024-01-08T22:24:29.012Z,80.09
2024-01-08T22:26:56.668Z,79.90
2024-01-08T22:29:23.810Z,80.03
2024-01-08T22:31:50.861Z,79.81
2024-01-08T22:34:18.069Z,80.03
2024-01-08T22:36:45.182Z,79.89
2024-01-08T22:39:13.123Z,80.16
2024-01-08T22:41:40.366Z,80.13
2024-01-08T22:44:14.126Z,80.08
2024-01-08T22:46:46.497Z,79.99
2024-01-08T22:49:13.908Z,79.99
2024-01-08T22:51:40.986Z,80.22
2024-01-08T22:54:08.074Z,79.97
2024-01-08T22:56:35.246Z,80.18
2024-01-08T22:59:02.434Z,80.17
2024-01-08T23:01:29.489Z,80.19
2024-01-08T23:03:56.554Z,80.29
2024-01-08T23:06:23.980Z,80.13
2024-01-08T23:08:51.317Z,80.29
2024-01-08T23:11:18.665Z,80.27
2024-01-08T23:13:45.748Z,80.43
2024-01-08T23:16:12.883Z,80.35
2024-01-08T23:18:40.066Z,80.32
2024-01-08T23:21:07.481Z,80.39
2024-01-08T23:23:35.168Z,80.20
2024-01-08T23:26:02.332Z,80.43
2024-01-08T23:28:29.431Z,80.45
2024-01-08T23:30:57.084Z,80.55
2024-01-08T23:33:24.384Z,80.52
2024-01-08T23:35:51.701Z,80.31
2024-01-08T23:38:22.106Z,80.40
2024-01-08T23:40:49.649Z,80.54
2024-01-08T23:43:18.146Z,80.45
2024-01-08T23:45:45.209Z,80.52
2024-01-08T23:48:14.267Z,80.46
2024-01-08T23:50:41.448Z,80.33
2024-01-08T23:53:08.635Z,80.52
2024-01-08T23:55:35.806Z,80.61
2024-01-08T23:58:02.850Z,80.69
